Time;durP1;ratioP1;P1;durP2;ratioP2;P2;SDS_P1;SDS_P2;PMS_P1;PMS_P2;Temp;Humidity;BMP_temperature;BMP_pressure;BME280_temperature;BME280_humidity;BME280_pressure;Samples;Min_cycle;Max_cycle;Signal;HPM_P1;HPM_P2
2021/12/25 00:01:22;;;;;;;0.82;0.82;;;9.30;99.90;;;;;;5254045;28;20418;-75
2021/12/25 00:03:57;;;;;;;0.73;0.73;;;9.10;99.90;;;;;;5240819;28;20412;-75
2021/12/25 00:06:28;;;;;;;0.73;0.73;;;8.90;99.90;;;;;;5231120;28;20123;-77
2021/12/25 00:08:59;;;;;;;0.70;0.70;;;8.80;99.90;;;;;;5248352;28;20044;-76
2021/12/25 00:11:32;;;;;;;0.60;0.60;;;8.80;99.90;;;;;;5256022;28;20263;-76
2021/12/25 00:14:10;;;;;;;0.70;0.70;;;8.80;99.90;;;;;;5238785;28;20048;-75
2021/12/25 00:16:41;;;;;;;0.60;0.60;;;8.80;99.90;;;;;;5268681;28;20094;-75
2021/12/25 00:19:15;;;;;;;0.50;0.50;;;8.80;99.90;;;;;;5245741;28;20039;-75
2021/12/25 00:21:50;;;;;;;0.90;0.90;;;8.80;99.90;;;;;;5232179;28;20040;-75
2021/12/25 00:24:21;;;;;;;0.73;0.73;;;8.80;99.90;;;;;;5240798;28;20078;-75
2021/12/25 00:27:05;;;;;;;0.70;0.70;;;8.80;99.90;;;;;;5221417;28;20071;-75
2021/12/25 00:30:09;;;;;;;0.65;0.65;;;8.80;99.90;;;;;;5246015;28;20032;-75
2021/12/25 00:35:15;;;;;;;0.75;0.75;;;8.80;99.90;;;;;;5249509;28;20016;-75
2021/12/25 00:38:00;;;;;;;0.65;0.65;;;8.80;99.90;;;;;;5245219;28;20494;-76
2021/12/25 00:40:33;;;;;;;0.80;0.80;;;8.80;99.90;;;;;;5224659;28;20034;-76
2021/12/25 00:43:07;;;;;;;0.90;0.90;;;8.70;99.90;;;;;;5241994;28;20047;-75
2021/12/25 00:45:43;;;;;;;0.70;0.70;;;8.60;99.90;;;;;;5226344;28;20211;-76
2021/12/25 00:48:14;;;;;;;0.73;0.73;;;8.60;99.90;;;;;;5236619;28;20036;-76
2021/12/25 00:50:47;;;;;;;0.68;0.68;;;8.50;99.90;;;;;;5244026;28;20213;-76
2021/12/25 00:53:23;;;;;;;0.70;0.70;;;8.50;99.90;;;;;;5260391;28;20408;-76
2021/12/25 00:55:54;;;;;;;0.60;0.60;;;8.50;99.90;;;;;;5248288;28;20040;-75
2021/12/25 00:58:27;;;;;;;0.50;0.50;;;8.50;99.90;;;;;;5253401;28;20039;-76
2021/12/25 01:01:02;;;;;;;0.75;0.75;;;8.40;99.90;;;;;;5248151;28;20443;-76
2021/12/25 01:03:35;;;;;;;0.70;0.70;;;8.40;99.90;;;;;;5244883;28;20028;-76
2021/12/25 01:06:06;;;;;;;0.57;0.57;;;8.50;99.90;;;;;;5242959;28;20078;-76
2021/12/25 01:08:37;;;;;;;0.77;0.77;;;8.50;99.90;;;;;;5250696;28;20028;-77
2021/12/25 01:11:11;;;;;;;0.70;0.70;;;8.60;99.90;;;;;;5271895;28;20070;-76
2021/12/25 01:13:52;;;;;;;0.65;0.65;;;8.60;99.90;;;;;;5238885;28;20040;-77
2021/12/25 01:16:57;;;;;;;0.80;0.80;;;8.60;99.90;;;;;;5251195;28;20040;-78
2021/12/25 01:22:54;;;;;;;0.80;0.80;;;8.60;99.90;;;;;;5249295;28;20060;-76
2021/12/25 01:28:28;;;;;;;1.00;1.00;;;8.60;99.90;;;;;;5250818;28;20574;-77
2021/12/25 01:49:53;;;;;;;0.90;0.90;;;8.80;99.90;;;;;;5238192;28;20039;-77
2021/12/25 01:52:30;;;;;;;0.70;0.70;;;8.80;99.90;;;;;;5245380;28;20028;-76
2021/12/25 01:55:11;;;;;;;0.65;0.65;;;8.80;99.90;;;;;;5269775;28;20052;-77
2021/12/25 01:57:46;;;;;;;0.93;0.93;;;8.80;99.90;;;;;;5245879;28;20048;-77
2021/12/25 02:00:32;;;;;;;0.60;0.60;;;8.90;99.90;;;;;;5248706;28;20032;-76
2021/12/25 02:03:09;;;;;;;0.88;0.88;;;8.90;99.90;;;;;;5260613;28;20370;-75
2021/12/25 02:05:46;;;;;;;0.70;0.70;;;8.90;99.90;;;;;;5263070;28;20058;-77
2021/12/25 02:08:17;;;;;;;1.02;1.02;;;8.90;99.90;;;;;;5243641;28;20093;-77
2021/12/25 02:10:49;;;;;;;0.77;0.77;;;8.90;99.90;;;;;;5242013;28;20318;-78
2021/12/25 02:13:23;;;;;;;0.80;0.80;;;8.90;99.90;;;;;;5235980;28;20621;-77
2021/12/25 02:16:00;;;;;;;0.80;0.80;;;8.90;99.90;;;;;;5229467;28;20040;-77
2021/12/25 02:21:40;;;;;;;0.90;0.90;;;8.80;99.90;;;;;;5253263;28;20028;-77
2021/12/25 02:24:17;;;;;;;0.65;0.65;;;8.80;99.90;;;;;;5249736;28;20117;-77
2021/12/25 02:26:52;;;;;;;0.80;0.80;;;8.80;99.90;;;;;;5243991;28;20028;-77
2021/12/25 02:29:32;;;;;;;0.60;0.60;;;8.90;99.90;;;;;;5253281;28;20043;-77
2021/12/25 02:32:10;;;;;;;0.70;0.70;;;8.90;99.90;;;;;;5245936;28;20059;-77
2021/12/25 02:34:46;;;;;;;0.60;0.60;;;9.00;99.90;;;;;;5247038;28;20021;-77
2021/12/25 02:37:19;;;;;;;0.80;0.80;;;9.00;99.90;;;;;;5250712;28;20032;-76
2021/12/25 02:39:55;;;;;;;0.60;0.60;;;9.00;99.90;;;;;;5240361;28;20146;-75
2021/12/25 02:42:44;;;;;;;0.95;0.95;;;8.90;99.90;;;;;;5254970;28;20028;-76
2021/12/25 02:45:24;;;;;;;0.70;0.70;;;8.80;99.90;;;;;;5258792;28;20043;-76
2021/12/25 02:47:57;;;;;;;0.47;0.47;;;8.60;99.90;;;;;;5239145;28;20443;-77
2021/12/25 02:50:37;;;;;;;0.68;0.68;;;8.50;99.90;;;;;;5257822;28;20091;-77
2021/12/25 02:53:16;;;;;;;0.80;0.80;;;8.50;99.90;;;;;;5255520;28;20040;-77
2021/12/25 02:55:50;;;;;;;0.73;0.73;;;8.50;99.90;;;;;;5239230;28;20358;-77
2021/12/25 02:58:21;;;;;;;0.60;0.60;;;8.50;99.90;;;;;;5246712;28;20040;-77
2021/12/25 03:01:16;;;;;;;0.70;0.70;;;8.40;99.90;;;;;;5253406;28;20111;-76
2021/12/25 03:03:50;;;;;;;0.70;0.70;;;8.40;99.90;;;;;;5239886;28;20394;-77
2021/12/25 03:06:25;;;;;;;0.77;0.77;;;8.40;99.90;;;;;;5245389;28;20044;-76
2021/12/25 03:08:56;;;;;;;0.55;0.55;;;8.40;99.90;;;;;;5248895;28;20048;-76
2021/12/25 03:11:30;;;;;;;0.70;0.70;;;8.30;99.90;;;;;;5242241;28;20070;-77
2021/12/25 03:14:30;;;;;;;0.70;0.70;;;8.40;99.90;;;;;;5251290;28;20238;-77
2021/12/25 03:17:06;;;;;;;0.80;0.80;;;8.40;99.90;;;;;;5239743;28;20580;-77
2021/12/25 03:19:40;;;;;;;0.60;0.60;;;8.50;99.90;;;;;;5247142;28;20024;-76
2021/12/25 03:22:11;;;;;;;0.75;0.75;;;8.60;99.90;;;;;;5247022;28;20561;-78
2021/12/25 03:24:44;;;;;;;0.80;0.80;;;8.70;99.90;;;;;;5241350;28;20055;-76
2021/12/25 03:27:21;;;;;;;0.70;0.70;;;8.70;99.90;;;;;;5246826;28;20033;-79
2021/12/25 03:30:00;;;;;;;0.60;0.60;;;8.70;99.90;;;;;;5243320;28;20042;-77
2021/12/25 03:32:31;;;;;;;0.85;0.85;;;8.70;99.90;;;;;;5255165;28;20040;-78
2021/12/25 03:35:05;;;;;;;0.77;0.77;;;8.70;99.90;;;;;;5239868;28;20091;-77
2021/12/25 03:37:40;;;;;;;0.70;0.70;;;8.60;99.90;;;;;;5255024;28;20399;-79
2021/12/25 03:40:11;;;;;;;0.60;0.60;;;8.60;99.90;;;;;;5247302;28;20043;-78
2021/12/25 03:42:45;;;;;;;0.75;0.75;;;8.60;99.90;;;;;;5238564;28;20040;-78
2021/12/25 03:45:20;;;;;;;0.88;0.88;;;8.60;99.90;;;;;;5250947;28;20036;-76
2021/12/25 03:48:02;;;;;;;;;;;8.60;99.90;;;;;;5257463;28;20100;-79
2021/12/25 03:59:17;;;;;;;1.10;1.10;;;8.50;99.90;;;;;;5202099;28;20072;-78
2021/12/25 04:01:55;;;;;;;0.70;0.70;;;8.60;99.90;;;;;;5223676;28;20043;-78
2021/12/25 04:04:38;;;;;;;0.80;0.80;;;8.50;99.90;;;;;;5211036;28;20056;-78
2021/12/25 04:07:54;;;;;;;0.82;0.82;;;8.50;99.90;;;;;;5200857;28;20051;-78
2021/12/25 04:10:20;;;;;;;0.73;0.73;;;8.50;99.90;;;;;;5223035;28;20079;-78
2021/12/25 04:13:02;;;;;;;0.88;0.88;;;8.50;99.90;;;;;;5195829;28;20048;-78
2021/12/25 04:15:37;;;;;;;0.70;0.70;;;8.50;99.90;;;;;;5196210;28;20032;-78
2021/12/25 04:18:11;;;;;;;0.50;0.50;;;8.40;99.90;;;;;;5196021;28;20791;-78
2021/12/25 04:20:46;;;;;;;0.73;0.73;;;8.40;99.90;;;;;;5199607;28;20104;-78
2021/12/25 04:23:23;;;;;;;0.80;0.80;;;8.40;99.90;;;;;;5206979;28;20072;-78
2021/12/25 04:25:59;;;;;;;0.80;0.80;;;8.40;99.90;;;;;;5191234;28;20056;-78
2021/12/25 05:04:55;;;;;;;0.80;0.80;;;8.40;99.90;;;;;;5170581;28;20431;-76
2021/12/25 05:07:27;;;;;;;0.85;0.85;;;8.30;99.90;;;;;;5193464;28;20423;-76
2021/12/25 05:10:03;;;;;;;0.63;0.63;;;8.30;99.90;;;;;;5200238;28;20132;-76
2021/12/25 05:12:39;;;;;;;0.70;0.70;;;8.30;99.90;;;;;;5263822;28;20100;-77
2021/12/25 05:15:12;;;;;;;0.60;0.60;;;8.30;99.90;;;;;;5254885;28;20028;-76
2021/12/25 05:17:43;;;;;;;0.90;0.90;;;8.40;99.90;;;;;;5240568;28;20055;-79
2021/12/25 05:20:18;;;;;;;0.90;0.90;;;8.50;99.90;;;;;;5256972;28;20379;-75
2021/12/25 05:22:54;;;;;;;0.80;0.80;;;8.50;99.90;;;;;;5257348;28;20047;-76
2021/12/25 05:25:33;;;;;;;0.60;0.60;;;8.50;99.90;;;;;;5259103;28;20055;-77
2021/12/25 05:28:10;;;;;;;0.70;0.70;;;8.40;99.90;;;;;;5241518;28;20118;-77
2021/12/25 05:30:41;;;;;;;0.80;0.80;;;8.40;99.90;;;;;;5257474;28;20028;-77
2021/12/25 05:33:16;;;;;;;0.80;0.80;;;8.40;99.90;;;;;;5252859;28;20105;-76
2021/12/25 05:35:51;;;;;;;0.80;0.80;;;8.40;99.90;;;;;;5236804;28;20035;-76
2021/12/25 05:38:25;;;;;;;0.60;0.60;;;8.40;99.90;;;;;;5245106;28;20028;-77
2021/12/25 05:40:58;;;;;;;0.80;0.80;;;8.40;99.90;;;;;;5263539;28;20551;-76
2021/12/25 05:43:31;;;;;;;0.90;0.90;;;8.40;99.90;;;;;;5243422;28;20043;-76
2021/12/25 05:46:04;;;;;;;0.85;0.85;;;8.40;99.90;;;;;;5242547;28;20055;-75
2021/12/25 05:48:41;;;;;;;0.70;0.70;;;8.50;99.90;;;;;;5252996;28;20103;-76
2021/12/25 05:51:14;;;;;;;2.72;2.53;;;8.50;99.90;;;;;;5251662;28;20452;-75
2021/12/25 05:53:46;;;;;;;0.70;0.70;;;8.50;99.90;;;;;;5229764;28;20031;-76
2021/12/25 05:56:25;;;;;;;0.60;0.60;;;8.50;99.90;;;;;;5279806;28;20389;-78
2021/12/25 05:58:55;;;;;;;0.77;0.77;;;8.40;99.90;;;;;;5267210;28;20020;-77
2021/12/25 06:01:32;;;;;;;0.82;0.82;;;8.40;99.90;;;;;;5252819;28;20035;-77
2021/12/25 06:04:03;;;;;;;0.60;0.60;;;8.40;99.90;;;;;;5245216;28;20047;-76
2021/12/25 06:06:34;;;;;;;0.80;0.80;;;8.40;99.90;;;;;;5243162;28;20044;-76
2021/12/25 06:09:09;;;;;;;0.57;0.57;;;8.40;99.90;;;;;;5254878;28;20031;-77
2021/12/25 06:11:41;;;;;;;0.50;0.50;;;8.40;99.90;;;;;;5258486;28;20093;-76
2021/12/25 06:14:19;;;;;;;0.70;0.70;;;8.40;99.90;;;;;;5255843;28;20051;-76
2021/12/25 06:16:50;;;;;;;0.68;0.68;;;8.40;99.90;;;;;;5217998;28;20541;-76
2021/12/25 06:19:21;;;;;;;0.60;0.60;;;8.40;99.90;;;;;;5246005;28;20039;-76
2021/12/25 06:21:56;;;;;;;0.57;0.57;;;8.40;99.90;;;;;;5244124;28;20024;-78
2021/12/25 06:24:29;;;;;;;;;;;8.30;99.90;;;;;;5255764;28;20036;-76
2021/12/25 06:27:03;;;;;;;0.75;0.75;;;8.30;99.90;;;;;;5254449;28;20379;-76
2021/12/25 06:29:33;;;;;;;0.90;0.90;;;8.30;99.90;;;;;;5251979;28;20036;-78
2021/12/25 06:32:10;;;;;;;0.63;0.63;;;8.20;99.90;;;;;;5259533;28;20431;-79
2021/12/25 06:34:41;;;;;;;0.63;0.63;;;8.20;99.90;;;;;;5255135;28;20034;-76
2021/12/25 06:37:13;;;;;;;0.50;0.50;;;8.20;99.90;;;;;;5252391;28;20133;-77
2021/12/25 06:39:49;;;;;;;0.65;0.65;;;8.20;99.90;;;;;;5259828;28;20040;-77
2021/12/25 06:42:23;;;;;;;0.50;0.50;;;8.20;99.90;;;;;;5233893;28;20420;-77
2021/12/25 06:44:56;;;;;;;1.05;1.05;;;8.20;99.90;;;;;;5241607;28;20099;-78
2021/12/25 06:47:32;;;;;;;0.50;0.50;;;8.10;99.90;;;;;;5240962;28;20141;-78
2021/12/25 06:50:08;;;;;;;0.60;0.60;;;8.10;99.90;;;;;;5237509;28;20036;-77
2021/12/25 06:52:45;;;;;;;0.80;0.80;;;8.10;99.90;;;;;;5257322;28;20023;-77
2021/12/25 06:55:21;;;;;;;1.23;1.13;;;8.20;99.90;;;;;;5237409;28;20639;-79
2021/12/25 06:57:57;;;;;;;0.55;0.55;;;8.10;99.90;;;;;;5233841;28;20039;-77
2021/12/25 07:00:31;;;;;;;0.52;0.52;;;8.00;99.90;;;;;;5255100;28;20047;-77
2021/12/25 07:03:07;;;;;;;0.80;0.80;;;8.00;99.90;;;;;;5253534;28;20422;-76
2021/12/25 07:05:38;;;;;;;1.35;1.35;;;8.00;99.90;;;;;;5259192;28;20487;-79
2021/12/25 07:08:11;;;;;;;0.95;0.95;;;8.00;99.90;;;;;;5236625;28;20031;-77
2021/12/25 07:10:42;;;;;;;0.47;0.47;;;7.90;99.90;;;;;;5251883;28;20448;-78
2021/12/25 07:13:17;;;;;;;0.80;0.80;;;7.80;99.90;;;;;;5257050;28;20027;-76
2021/12/25 07:15:51;;;;;;;0.60;0.60;;;7.80;99.90;;;;;;5249996;28;20047;-76
2021/12/25 07:18:24;;;;;;;2.10;2.00;;;7.80;99.90;;;;;;5256191;28;20092;-77
2021/12/25 07:20:55;;;;;;;0.80;0.80;;;7.80;99.90;;;;;;5253508;28;20489;-77
2021/12/25 07:23:29;;;;;;;0.85;0.85;;;7.60;99.90;;;;;;5254911;28;20027;-76
2021/12/25 07:26:03;;;;;;;1.00;1.00;;;7.60;99.90;;;;;;5239416;28;20643;-75
2021/12/25 07:28:34;;;;;;;0.60;0.60;;;7.50;99.90;;;;;;5254551;28;20040;-76
2021/12/25 07:31:08;;;;;;;0.82;0.82;;;7.30;99.90;;;;;;5241656;28;20039;-75
2021/12/25 07:33:40;;;;;;;0.40;0.40;;;7.10;99.90;;;;;;5250697;28;20039;-75
2021/12/25 07:36:15;;;;;;;1.40;1.30;;;6.90;99.90;;;;;;5253767;28;20601;-75
2021/12/25 07:38:46;;;;;;;0.60;0.60;;;6.70;99.90;;;;;;5253455;28;20027;-77
2021/12/25 07:41:16;;;;;;;0.65;0.65;;;6.60;99.90;;;;;;5257418;28;20063;-75
2021/12/25 07:43:48;;;;;;;0.70;0.70;;;6.60;99.90;;;;;;5245481;28;20104;-77
2021/12/25 07:46:19;;;;;;;0.57;0.57;;;6.50;99.90;;;;;;5251910;28;20088;-76
2021/12/25 07:48:57;;;;;;;1.20;1.10;;;6.30;99.90;;;;;;5260074;28;20036;-75
2021/12/25 07:51:28;;;;;;;0.50;0.50;;;6.20;99.90;;;;;;5247663;28;20505;-75
2021/12/25 07:54:00;;;;;;;1.02;1.02;;;6.10;99.90;;;;;;5255296;28;20032;-76
2021/12/25 07:56:39;;;;;;;0.50;0.50;;;5.90;99.90;;;;;;5252922;28;20019;-75
2021/12/25 07:59:13;;;;;;;1.35;1.35;;;5.90;99.90;;;;;;5252881;28;20538;-76
2021/12/25 08:01:46;;;;;;;;;;;5.80;99.90;;;;;;5255096;28;20048;-78
2021/12/25 08:04:21;;;;;;;0.60;0.60;;;5.80;99.90;;;;;;5224866;28;20291;-75
2021/12/25 08:06:57;;;;;;;0.80;0.80;;;5.70;99.90;;;;;;5254497;28;20032;-75
2021/12/25 08:09:29;;;;;;;0.77;0.77;;;5.60;99.90;;;;;;5250864;28;20354;-75
2021/12/25 08:12:02;;;;;;;0.60;0.60;;;5.60;99.90;;;;;;5232354;28;20537;-75
2021/12/25 08:14:35;;;;;;;0.85;0.85;;;5.60;99.90;;;;;;5245789;28;20556;-76
2021/12/25 08:17:06;;;;;;;0.95;0.95;;;5.70;99.90;;;;;;5255747;28;20055;-76
2021/12/25 08:19:42;;;;;;;0.95;0.95;;;5.70;99.90;;;;;;5251342;28;20578;-76
2021/12/25 08:22:16;;;;;;;1.63;1.52;;;5.60;99.90;;;;;;5233584;28;20044;-76
2021/12/25 08:24:51;;;;;;;0.63;0.63;;;5.50;99.90;;;;;;5232726;28;20116;-76
2021/12/25 08:27:24;;;;;;;1.60;1.50;;;5.40;99.90;;;;;;5258243;28;20074;-75
2021/12/25 08:29:59;;;;;;;0.50;0.50;;;5.40;99.90;;;;;;5235189;28;20028;-76
2021/12/25 08:32:34;;;;;;;0.75;0.75;;;5.40;99.90;;;;;;5248188;28;20033;-76
2021/12/25 08:35:08;;;;;;;1.38;1.38;;;5.50;99.90;;;;;;5255225;28;20040;-76
2021/12/25 08:37:39;;;;;;;3.13;2.28;;;5.50;99.90;;;;;;5248667;28;20028;-76
2021/12/25 08:40:12;;;;;;;0.90;0.90;;;5.50;99.90;;;;;;5249026;28;20243;-76
2021/12/25 08:42:52;;;;;;;0.80;0.80;;;5.50;99.90;;;;;;5247439;28;20233;-76
2021/12/25 08:48:24;;;;;;;0.80;0.80;;;5.60;99.90;;;;;;5256541;28;20357;-76
2021/12/25 08:50:58;;;;;;;0.82;0.82;;;5.60;99.90;;;;;;5239405;28;20033;-76
2021/12/25 08:53:32;;;;;;;1.00;1.00;;;5.50;99.90;;;;;;5242996;28;20073;-76
2021/12/25 08:56:09;;;;;;;0.95;0.95;;;5.50;99.90;;;;;;5246417;28;20035;-78
2021/12/25 08:58:40;;;;;;;0.90;0.90;;;5.30;99.90;;;;;;5231514;28;20031;-76
2021/12/25 09:01:12;;;;;;;0.90;0.90;;;5.20;99.90;;;;;;5239086;28;20032;-75
2021/12/25 09:03:45;;;;;;;0.75;0.75;;;5.00;99.90;;;;;;5223611;28;20033;-75
2021/12/25 09:06:16;;;;;;;0.52;0.52;;;4.90;99.90;;;;;;5244831;28;20056;-77
2021/12/25 09:08:47;;;;;;;0.63;0.63;;;4.90;99.90;;;;;;5241525;28;20032;-76
2021/12/25 09:11:20;;;;;;;1.08;1.08;;;4.80;99.90;;;;;;5248558;28;20032;-76
2021/12/25 09:13:52;;;;;;;0.73;0.73;;;4.80;99.90;;;;;;5256603;28;20056;-77
2021/12/25 09:16:23;;;;;;;0.70;0.70;;;4.80;99.90;;;;;;5242781;28;20044;-77
2021/12/25 09:18:53;;;;;;;0.90;0.90;;;4.80;99.90;;;;;;5245792;28;20570;-78
2021/12/25 09:21:25;;;;;;;1.85;1.35;;;4.80;99.90;;;;;;5246827;28;20019;-75
2021/12/25 09:23:56;;;;;;;0.75;0.75;;;4.80;99.90;;;;;;5241965;28;20020;-77
2021/12/25 09:26:27;;;;;;;0.98;0.98;;;4.70;99.90;;;;;;5244889;28;20470;-77
2021/12/25 09:28:58;;;;;;;0.55;0.55;;;4.60;99.90;;;;;;5251487;28;20091;-76
2021/12/25 09:31:37;;;;;;;0.70;0.70;;;4.60;99.90;;;;;;5241706;28;20476;-76
2021/12/25 09:34:11;;;;;;;0.70;0.70;;;4.70;99.90;;;;;;5249755;28;20048;-77
2021/12/25 09:36:47;;;;;;;0.57;0.57;;;4.70;99.90;;;;;;5251164;28;20024;-76
2021/12/25 09:39:26;;;;;;;1.02;1.02;;;4.60;99.90;;;;;;5240723;28;20055;-76
2021/12/25 09:42:02;;;;;;;0.70;0.70;;;4.50;99.90;;;;;;5226950;28;20039;-77
2021/12/25 09:44:32;;;;;;;1.23;1.23;;;4.40;99.90;;;;;;5255153;28;20040;-77
2021/12/25 09:47:06;;;;;;;0.60;0.60;;;4.30;99.90;;;;;;5248861;28;20166;-76
2021/12/25 09:49:40;;;;;;;0.70;0.70;;;4.30;99.90;;;;;;5239009;28;20077;-75
2021/12/25 09:52:13;;;;;;;0.93;0.93;;;4.30;99.90;;;;;;5238394;28;20036;-76
2021/12/25 09:54:44;;;;;;;0.75;0.75;;;4.40;99.90;;;;;;5242926;28;20185;-77
2021/12/25 09:57:19;;;;;;;1.17;1.17;;;4.40;99.90;;;;;;5253421;28;20054;-76
2021/12/25 09:59:54;;;;;;;0.85;0.85;;;4.50;99.90;;;;;;5234349;28;20024;-76
2021/12/25 10:02:29;;;;;;;0.70;0.70;;;4.40;99.90;;;;;;5229109;28;20096;-75
2021/12/25 10:05:02;;;;;;;1.00;1.00;;;4.20;99.90;;;;;;5240828;28;20123;-75
2021/12/25 10:07:33;;;;;;;0.55;0.55;;;4.20;99.90;;;;;;5257000;28;20055;-75
2021/12/25 10:10:17;;;;;;;0.60;0.60;;;4.20;99.90;;;;;;5250515;28;20099;-76
2021/12/25 10:12:51;;;;;;;1.13;1.13;;;4.20;99.90;;;;;;5246909;28;20032;-76
2021/12/25 10:15:25;;;;;;;0.88;0.88;;;4.20;99.90;;;;;;5254460;28;20051;-76
2021/12/25 10:17:58;;;;;;;1.35;1.35;;;4.20;99.90;;;;;;5240803;28;20031;-77
2021/12/25 10:20:34;;;;;;;1.30;1.30;;;4.20;99.90;;;;;;5271501;28;20036;-76
2021/12/25 10:23:24;;;;;;;0.80;0.80;;;4.30;99.90;;;;;;5241881;28;20048;-76
2021/12/25 10:26:03;;;;;;;0.70;0.70;;;4.30;99.90;;;;;;5268720;28;20032;-76
2021/12/25 10:28:38;;;;;;;0.60;0.60;;;4.10;99.90;;;;;;5239262;28;20388;-76
2021/12/25 10:31:16;;;;;;;0.70;0.70;;;4.10;99.90;;;;;;5250292;28;20453;-76
2021/12/25 10:33:57;;;;;;;1.80;1.70;;;4.10;99.90;;;;;;5249342;28;20096;-76
2021/12/25 10:36:35;;;;;;;0.57;0.57;;;3.90;99.90;;;;;;5251314;28;20344;-76
2021/12/25 10:39:12;;;;;;;0.40;0.40;;;3.80;99.90;;;;;;5244813;28;20044;-76
2021/12/25 10:42:03;;;;;;;0.60;0.60;;;3.70;99.90;;;;;;5249326;28;20032;-76
2021/12/25 10:44:50;;;;;;;0.60;0.60;;;3.70;99.90;;;;;;5257217;28;20470;-77
2021/12/25 10:47:31;;;;;;;0.80;0.80;;;3.70;99.90;;;;;;5246190;28;20024;-77
2021/12/25 10:50:23;;;;;;;0.57;0.57;;;3.80;99.90;;;;;;5258805;28;20453;-76
2021/12/25 10:52:57;;;;;;;0.70;0.70;;;4.00;99.90;;;;;;5252783;28;20081;-76
2021/12/25 10:55:37;;;;;;;0.80;0.80;;;3.80;99.90;;;;;;5248071;28;20032;-75
2021/12/25 10:58:24;;;;;;;0.80;0.80;;;3.80;99.90;;;;;;5234825;28;20107;-74
2021/12/25 11:00:59;;;;;;;0.40;0.40;;;4.00;99.90;;;;;;5254756;28;20060;-75
2021/12/25 11:03:39;;;;;;;0.60;0.60;;;4.10;99.90;;;;;;5248430;28;20065;-75
2021/12/25 11:06:18;;;;;;;0.80;0.80;;;4.00;99.90;;;;;;5244654;28;20055;-75
2021/12/25 11:08:49;;;;;;;1.10;1.10;;;4.00;99.90;;;;;;5243098;28;20028;-74
2021/12/25 11:11:23;;;;;;;0.57;0.57;;;4.00;99.90;;;;;;5258212;28;20042;-76
2021/12/25 11:14:02;;;;;;;0.85;0.85;;;4.10;99.90;;;;;;5244036;28;20032;-75
2021/12/25 11:16:39;;;;;;;0.70;0.70;;;3.80;99.90;;;;;;5265438;28;20032;-75
2021/12/25 11:19:27;;;;;;;0.50;0.50;;;3.90;99.90;;;;;;5235998;28;20036;-75
2021/12/25 11:22:09;;;;;;;0.70;0.70;;;3.90;99.90;;;;;;5231642;28;20100;-75
2021/12/25 11:24:45;;;;;;;0.73;0.73;;;3.80;99.90;;;;;;5239546;28;20355;-75
2021/12/25 11:27:20;;;;;;;0.70;0.70;;;3.60;99.90;;;;;;5250894;28;20093;-74
2021/12/25 11:29:55;;;;;;;0.70;0.70;;;3.60;99.90;;;;;;5256861;28;20056;-74
2021/12/25 11:32:28;;;;;;;1.35;1.35;;;3.50;99.90;;;;;;5249540;28;20028;-74
2021/12/25 11:35:00;;;;;;;0.90;0.90;;;3.40;99.90;;;;;;5248183;28;20039;-75
2021/12/25 11:37:32;;;;;;;0.75;0.75;;;3.40;99.90;;;;;;5255118;28;20454;-75
2021/12/25 11:40:06;;;;;;;0.70;0.70;;;3.30;99.90;;;;;;5255230;28;20050;-74
2021/12/25 11:42:53;;;;;;;0.50;0.50;;;3.20;99.90;;;;;;5243455;28;20042;-75
2021/12/25 11:45:48;;;;;;;0.60;0.60;;;3.10;99.90;;;;;;5239368;28;20039;-75
2021/12/25 11:48:22;;;;;;;0.60;0.60;;;3.20;99.90;;;;;;5244440;28;20031;-75
2021/12/25 11:50:53;;;;;;;1.00;1.00;;;3.10;99.90;;;;;;5233281;28;20103;-75
2021/12/25 11:54:09;;;;;;;1.58;1.48;;;3.20;99.90;;;;;;5241456;28;20040;-76
2021/12/25 11:57:07;;;;;;;0.70;0.70;;;3.10;99.90;;;;;;5253914;28;20079;-75
2021/12/25 11:59:46;;;;;;;0.50;0.50;;;3.20;99.90;;;;;;5247780;28;20051;-74
2021/12/25 12:02:49;;;;;;;1.35;1.25;;;3.00;99.90;;;;;;5251248;28;20066;-74
2021/12/25 12:05:27;;;;;;;0.50;0.50;;;2.90;99.90;;;;;;5168805;28;20568;-75
2021/12/25 12:08:12;;;;;;;0.60;0.60;;;2.90;99.90;;;;;;5175120;28;20029;-74
2021/12/25 12:10:49;;;;;;;0.50;0.50;;;2.90;99.90;;;;;;5168360;28;20041;-75
2021/12/25 12:13:29;;;;;;;0.80;0.80;;;2.90;99.90;;;;;;5181475;28;20045;-75
2021/12/25 12:16:03;;;;;;;1.65;1.55;;;3.00;99.90;;;;;;5176451;28;20049;-75
2021/12/25 12:18:40;;;;;;;0.88;0.88;;;3.00;99.90;;;;;;5142036;28;20097;-75
2021/12/25 12:21:24;;;;;;;0.50;0.50;;;3.00;99.90;;;;;;5188864;28;20112;-75
2021/12/25 12:26:53;;;;;;;0.70;0.70;;;3.00;99.90;;;;;;5191387;28;20028;-75
2021/12/25 12:29:39;;;;;;;0.50;0.50;;;2.90;99.90;;;;;;5136655;28;20369;-74
2021/12/25 12:32:18;;;;;;;0.70;0.70;;;2.90;99.90;;;;;;5185404;28;20152;-75
2021/12/25 12:34:53;;;;;;;0.80;0.80;;;2.80;99.90;;;;;;5186656;28;20056;-75
2021/12/25 12:37:30;;;;;;;0.75;0.75;;;2.80;99.90;;;;;;5172287;28;20033;-75
2021/12/25 12:40:07;;;;;;;0.47;0.47;;;2.80;99.90;;;;;;5186909;28;20485;-75
2021/12/25 12:42:41;;;;;;;0.95;0.95;;;2.70;99.90;;;;;;5236792;28;20051;-74
2021/12/25 12:45:23;;;;;;;;;;;2.60;99.90;;;;;;5244037;28;20044;-74
2021/12/25 12:48:08;;;;;;;1.02;1.02;;;2.60;99.90;;;;;;5228744;28;20293;-74
2021/12/25 12:50:42;;;;;;;;;;;2.50;99.90;;;;;;5254054;28;20032;-75
2021/12/25 12:53:16;;;;;;;0.70;0.70;;;2.50;99.90;;;;;;5244951;28;20446;-74
2021/12/25 12:55:54;;;;;;;;;;;2.50;99.90;;;;;;5247672;28;20071;-74
2021/12/25 12:58:30;;;;;;;1.38;1.30;;;2.40;99.90;;;;;;5245038;28;19955;-74
2021/12/25 13:01:10;;;;;;;0.60;0.60;;;2.50;99.90;;;;;;5225475;28;20097;-74
2021/12/25 13:03:41;;;;;;;0.40;0.40;;;2.50;99.90;;;;;;5243700;28;20021;-73
2021/12/25 13:06:15;;;;;;;0.88;0.88;;;2.50;99.90;;;;;;5229967;28;20627;-74
2021/12/25 13:08:48;;;;;;;0.60;0.60;;;2.40;99.90;;;;;;5241311;28;20032;-74
2021/12/25 13:11:28;;;;;;;0.50;0.50;;;2.40;99.90;;;;;;5242147;28;20385;-74
2021/12/25 13:14:03;;;;;;;0.50;0.50;;;2.30;99.90;;;;;;5239198;28;20040;-73
2021/12/25 13:16:44;;;;;;;0.43;0.43;;;2.20;99.90;;;;;;5248146;28;20331;-74
2021/12/25 13:19:15;;;;;;;0.55;0.55;;;2.10;99.90;;;;;;5246236;28;20028;-74
2021/12/25 13:21:46;;;;;;;0.68;0.68;;;2.10;99.90;;;;;;5254017;28;20046;-75
2021/12/25 13:24:20;;;;;;;0.60;0.60;;;2.00;99.90;;;;;;5246768;28;20040;-74
2021/12/25 13:26:52;;;;;;;1.08;1.08;;;2.00;99.90;;;;;;5252346;28;20032;-74
2021/12/25 13:29:26;;;;;;;1.27;1.27;;;2.00;99.90;;;;;;5254038;28;20431;-74
2021/12/25 13:31:57;;;;;;;;;;;2.00;99.90;;;;;;5255569;28;20600;-74
2021/12/25 13:34:34;;;;;;;0.55;0.55;;;2.00;99.90;;;;;;5254317;28;19918;-75
2021/12/25 13:37:13;;;;;;;0.80;0.80;;;2.00;99.90;;;;;;5249109;28;20032;-74
2021/12/25 13:39:44;;;;;;;0.70;0.70;;;1.90;99.90;;;;;;5254639;28;20071;-74
2021/12/25 13:42:18;;;;;;;0.60;0.60;;;1.90;99.90;;;;;;5247343;28;20033;-74
2021/12/25 13:44:53;;;;;;;0.50;0.50;;;1.80;99.90;;;;;;5216607;28;20050;-75
2021/12/25 13:47:28;;;;;;;0.57;0.57;;;1.80;99.90;;;;;;5256160;28;20032;-74
2021/12/25 13:50:06;;;;;;;0.47;0.47;;;1.70;99.90;;;;;;5258328;28;20040;-74
2021/12/25 13:52:46;;;;;;;0.50;0.50;;;1.60;99.90;;;;;;5227902;28;20090;-75
2021/12/25 13:55:27;;;;;;;0.60;0.60;;;1.50;99.90;;;;;;5235502;28;20036;-74
2021/12/25 13:58:09;;;;;;;0.60;0.60;;;1.50;99.90;;;;;;5273071;28;20036;-74
2021/12/25 14:00:46;;;;;;;0.50;0.50;;;1.40;99.90;;;;;;5257612;28;20067;-74
2021/12/25 14:03:28;;;;;;;0.85;0.85;;;1.30;99.90;;;;;;5245205;28;20032;-75
2021/12/25 14:06:00;;;;;;;0.50;0.50;;;1.30;99.90;;;;;;5249303;28;20085;-75
2021/12/25 14:08:34;;;;;;;0.65;0.65;;;1.20;99.90;;;;;;5247813;28;20063;-74
2021/12/25 14:11:08;;;;;;;0.50;0.50;;;1.20;99.90;;;;;;5248623;28;20063;-74
2021/12/25 14:13:40;;;;;;;1.13;1.08;;;1.10;99.90;;;;;;5250607;28;20040;-74
2021/12/25 14:16:12;;;;;;;1.08;1.08;;;1.10;99.90;;;;;;5231770;28;20554;-76
2021/12/25 14:18:43;;;;;;;0.55;0.55;;;1.10;99.90;;;;;;5255471;28;20485;-76
2021/12/25 14:21:22;;;;;;;0.70;0.70;;;1.10;99.90;;;;;;5236901;28;20016;-76
2021/12/25 14:24:04;;;;;;;0.60;0.60;;;1.10;99.90;;;;;;5259628;28;20107;-76
2021/12/25 14:26:35;;;;;;;0.63;0.63;;;1.00;99.90;;;;;;5235930;28;20048;-75
2021/12/25 14:29:33;;;;;;;0.50;0.50;;;1.00;99.90;;;;;;5250343;28;20035;-75
2021/12/25 14:32:06;;;;;;;0.50;0.50;;;1.00;99.90;;;;;;5226739;28;20580;-75
2021/12/25 14:34:37;;;;;;;0.50;0.50;;;0.90;99.90;;;;;;5250680;28;20040;-75
2021/12/25 14:37:12;;;;;;;0.40;0.40;;;0.90;99.90;;;;;;5245323;28;20083;-75
2021/12/25 14:39:43;;;;;;;0.47;0.47;;;0.90;99.90;;;;;;5256495;28;20430;-76
2021/12/25 14:42:17;;;;;;;0.50;0.50;;;0.90;99.90;;;;;;5255024;28;20225;-76
2021/12/25 14:45:00;;;;;;;0.63;0.63;;;1.00;99.90;;;;;;5257598;28;20333;-75
2021/12/25 14:47:31;;;;;;;0.50;0.50;;;0.90;99.90;;;;;;5251589;28;20218;-75
2021/12/25 14:50:02;;;;;;;0.85;0.85;;;0.70;99.90;;;;;;5243660;28;20070;-75
2021/12/25 14:52:33;;;;;;;0.50;0.50;;;0.70;99.90;;;;;;5249622;28;20500;-76
2021/12/25 14:55:17;;;;;;;0.40;0.40;;;0.70;99.90;;;;;;5256280;28;20032;-75
2021/12/25 14:57:51;;;;;;;0.50;0.50;;;0.60;99.90;;;;;;5232471;28;20024;-74
2021/12/25 15:00:28;;;;;;;1.02;1.02;;;0.50;99.90;;;;;;5237406;28;20051;-75
2021/12/25 15:03:16;;;;;;;0.50;0.50;;;0.60;99.90;;;;;;5271693;28;20381;-75
2021/12/25 15:05:54;;;;;;;0.50;0.50;;;0.60;99.90;;;;;;5237995;28;20269;-75